Time;durP1;ratioP1;P1;durP2;ratioP2;P2;SDS_P1;SDS_P2;PMS_P1;PMS_P2;Temp;Humidity;BMP_temperature;BMP_pressure;BME280_temperature;BME280_humidity;BME280_pressure;Samples;Min_cycle;Max_cycle;Signal;HPM_P1;HPM_P2
2022/02/25 00:01:38;;;;;;;4.97;4.45;;;;;;;2.25;76.29;99267.95;1759209;80;20982;-69
2022/02/25 00:04:06;;;;;;;4.65;4.25;;;;;;;2.22;76.49;99261.16;1733880;82;21513;-69
2022/02/25 00:06:34;;;;;;;5.03;3.95;;;;;;;2.22;76.68;99270.81;1759800;81;20963;-68
2022/02/25 00:09:05;;;;;;;4.70;4.30;;;;;;;2.23;76.74;99263.31;1743928;80;20889;-69
2022/02/25 00:11:34;;;;;;;5.45;4.78;;;;;;;2.23;76.88;99258.06;1754806;80;21480;-68
2022/02/25 00:14:04;;;;;;;4.78;4.28;;;;;;;2.23;76.97;99257.59;1765106;80;21449;-68
2022/02/25 00:16:32;;;;;;;6.00;4.65;;;;;;;2.22;77.03;99257.22;1755123;80;20975;-67
2022/02/25 00:19:00;;;;;;;5.47;4.87;;;;;;;2.21;77.16;99249.48;1755334;80;21508;-67
2022/02/25 00:21:28;;;;;;;4.83;4.42;;;;;;;2.21;77.23;99256.05;1755679;80;21533;-68
2022/02/25 00:23:56;;;;;;;5.00;4.50;;;;;;;2.20;77.35;99243.39;1760628;80;20844;-65
2022/02/25 00:26:24;;;;;;;5.65;4.47;;;;;;;2.21;77.40;99241.14;1760310;80;20915;-68
2022/02/25 00:28:52;;;;;;;5.20;4.70;;;;;;;2.17;77.51;99235.76;1743855;81;20996;-67
2022/02/25 00:31:21;;;;;;;4.58;4.17;;;;;;;2.16;77.58;99241.98;1750049;80;21556;-67
2022/02/25 00:33:49;;;;;;;5.12;4.17;;;;;;;2.16;77.67;99238.05;1760523;80;20954;-67
2022/02/25 00:36:17;;;;;;;5.53;4.72;;;;;;;2.15;77.75;99235.06;1748122;81;21403;-68
2022/02/25 00:38:45;;;;;;;5.45;4.53;;;;;;;2.16;77.78;99235.42;1743206;80;21439;-67
2022/02/25 00:41:13;;;;;;;6.87;4.90;;;;;;;2.16;77.81;99241.98;1729114;81;20995;-67
2022/02/25 00:43:41;;;;;;;4.62;4.10;;;;;;;2.17;77.82;99242.80;1749048;80;20947;-68
2022/02/25 00:46:08;;;;;;;5.00;4.55;;;;;;;2.15;77.89;99237.69;1766242;80;21169;-68
2022/02/25 00:48:36;;;;;;;5.25;4.75;;;;;;;2.12;78.04;99243.17;1748688;80;20888;-68
2022/02/25 00:51:04;;;;;;;5.15;4.70;;;;;;;2.09;78.08;99234.70;1742452;80;20858;-67
2022/02/25 00:53:32;;;;;;;7.42;4.72;;;;;;;2.06;78.21;99247.59;1743614;81;20996;-67
2022/02/25 00:55:59;;;;;;;4.92;4.42;;;;;;;2.02;78.42;99239.62;1741727;80;21028;-68
2022/02/25 00:58:26;;;;;;;6.08;4.53;;;;;;;2.00;78.49;99236.30;1747099;80;22377;-67
2022/02/25 01:00:54;;;;;;;6.78;5.72;;;;;;;1.98;78.60;99233.44;1755860;80;21034;-67
2022/02/25 01:03:22;;;;;;;12.60;5.50;;;;;;;1.95;78.69;99230.58;1756809;80;20868;-69
2022/02/25 01:05:49;;;;;;;11.73;5.85;;;;;;;1.95;78.76;99230.58;1740783;81;21006;-68
2022/02/25 01:08:15;;;;;;;9.13;6.28;;;;;;;1.93;78.84;99233.78;1743620;80;20881;-67
2022/02/25 01:10:42;;;;;;;11.60;6.28;;;;;;;1.92;78.93;99226.05;1747096;80;21089;-68
2022/02/25 01:13:08;;;;;;;13.28;6.55;;;;;;;1.91;79.09;99225.20;1759042;80;21014;-68
2022/02/25 01:15:34;;;;;;;13.18;6.28;;;;;;;1.88;79.19;99221.50;1764132;80;20983;-68
2022/02/25 01:18:01;;;;;;;10.75;6.05;;;;;;;1.86;79.24;99215.55;1706916;84;21000;-68
2022/02/25 01:20:27;;;;;;;16.45;5.85;;;;;;;1.86;79.31;99207.69;1752257;80;21654;-68
2022/02/25 01:22:54;;;;;;;12.00;6.47;;;;;;;1.86;79.37;99209.00;1744089;82;21291;-68
2022/02/25 01:25:20;;;;;;;10.03;5.60;;;;;;;1.82;79.57;99202.34;1751031;80;20976;-68
2022/02/25 01:27:47;;;;;;;8.78;6.53;;;;;;;1.79;79.84;99192.09;1740438;81;20904;-68
2022/02/25 01:30:13;;;;;;;9.33;6.03;;;;;;;1.77;79.92;99190.08;1741677;80;21484;-66
2022/02/25 01:32:39;;;;;;;11.53;6.70;;;;;;;1.76;79.95;99186.61;1739482;81;20884;-67
2022/02/25 01:35:08;;;;;;;11.60;6.55;;;;;;;1.75;80.03;99185.41;1750771;80;21929;-67
2022/02/25 01:37:34;;;;;;;18.98;7.58;;;;;;;1.74;80.13;99177.20;1752860;80;20939;-68
2022/02/25 01:40:00;;;;;;;9.48;7.45;;;;;;;1.73;80.26;99180.77;1771807;80;20924;-67
2022/02/25 01:42:27;;;;;;;10.30;7.58;;;;;;;1.70;80.42;99170.52;1712715;83;21465;-68
2022/02/25 01:44:55;;;;;;;8.55;6.60;;;;;;;1.69;80.46;99165.77;1748234;80;20949;-68
2022/02/25 01:47:21;;;;;;;10.50;5.87;;;;;;;1.69;80.57;99171.48;1746563;80;21817;-67
2022/02/25 01:49:48;;;;;;;9.30;5.97;;;;;;;1.68;80.76;99167.19;1753036;80;20929;-66
2022/02/25 01:52:17;;;;;;;12.15;7.08;;;;;;;1.66;80.84;99166.01;1751487;80;20892;-67
2022/02/25 01:54:45;;;;;;;8.88;6.85;;;;;;;1.66;81.09;99170.41;1743994;80;20886;-68
2022/02/25 01:57:14;;;;;;;13.05;7.83;;;;;;;1.65;81.29;99160.40;1729741;81;20941;-68
2022/02/25 01:59:41;;;;;;;14.53;8.38;;;;;;;1.66;81.45;99158.14;1738096;80;21086;-68
2022/02/25 02:02:08;;;;;;;13.45;8.83;;;;;;;1.67;81.50;99147.98;1747229;80;21522;-68
2022/02/25 02:04:36;;;;;;;14.50;9.20;;;;;;;1.70;81.54;99142.50;1746354;80;21002;-67
2022/02/25 02:07:05;;;;;;;14.05;9.25;;;;;;;1.71;81.67;99140.72;1743988;80;20908;-67
2022/02/25 02:09:31;;;;;;;10.95;9.10;;;;;;;1.73;81.58;99130.94;1754195;80;20989;-67
2022/02/25 02:11:57;;;;;;;11.20;8.70;;;;;;;1.73;81.58;99136.18;1772954;80;21130;-68
2022/02/25 02:14:25;;;;;;;11.05;8.33;;;;;;;1.75;81.53;99138.19;1746592;80;20923;-67
2022/02/25 02:16:54;;;;;;;8.75;7.15;;;;;;;1.76;81.51;99139.87;1744145;80;21510;-67
2022/02/25 02:19:21;;;;;;;8.13;7.33;;;;;;;1.79;81.46;99137.01;1742705;80;20963;-67
2022/02/25 02:21:50;;;;;;;7.42;6.45;;;;;;;1.80;81.46;99132.94;1761427;80;20959;-67
2022/02/25 02:24:17;;;;;;;7.85;6.67;;;;;;;1.81;81.49;99125.91;1757373;80;21133;-67
2022/02/25 02:26:44;;;;;;;7.22;5.95;;;;;;;1.84;81.35;99126.98;1718508;82;20988;-68
2022/02/25 02:29:11;;;;;;;6.20;5.35;;;;;;;1.84;81.27;99122.57;1732298;80;20972;-68
2022/02/25 02:31:38;;;;;;;7.22;5.12;;;;;;;1.85;81.23;99111.61;1754975;81;21505;-68
2022/02/25 02:34:05;;;;;;;7.90;6.47;;;;;;;1.85;81.19;99112.92;1755805;81;21595;-68
2022/02/25 02:36:31;;;;;;;10.65;5.35;;;;;;;1.85;81.19;99116.34;1743206;81;21111;-68
2022/02/25 02:38:57;;;;;;;7.22;5.80;;;;;;;1.86;81.13;99125.05;1744854;80;21087;-68
2022/02/25 02:41:24;;;;;;;7.80;5.78;;;;;;;1.85;81.08;99122.09;1755261;80;20844;-68
2022/02/25 02:43:50;;;;;;;9.35;6.25;;;;;;;1.85;81.05;99123.41;1771367;80;20991;-68
2022/02/25 02:46:17;;;;;;;8.00;6.15;;;;;;;1.83;81.06;99122.20;1701920;84;20999;-67
2022/02/25 02:48:43;;;;;;;6.33;5.53;;;;;;;1.83;81.07;99121.36;1757573;80;21129;-65
2022/02/25 02:51:13;;;;;;;8.15;6.40;;;;;;;1.82;81.06;99126.27;1700590;82;21497;-69
2022/02/25 02:53:40;;;;;;;7.58;6.10;;;;;;;1.82;81.01;99126.27;1762898;80;20963;-68
2022/02/25 02:56:06;;;;;;;7.17;6.47;;;;;;;1.83;81.03;99122.20;1696820;83;20995;-68
2022/02/25 02:58:33;;;;;;;8.28;6.70;;;;;;;1.84;81.00;99130.44;1759115;80;20943;-67
2022/02/25 03:01:00;;;;;;;8.30;6.97;;;;;;;1.86;80.97;99123.74;1752136;80;21093;-67
2022/02/25 03:03:26;;;;;;;7.00;5.87;;;;;;;1.86;80.92;99121.12;1744899;80;21431;-67
2022/02/25 03:05:53;;;;;;;7.78;5.58;;;;;;;1.84;81.01;99125.66;1752261;80;20855;-67
2022/02/25 03:08:21;;;;;;;6.87;5.92;;;;;;;1.84;81.03;99119.11;1754284;80;20904;-67
2022/02/25 03:10:47;;;;;;;7.87;5.83;;;;;;;1.83;81.07;99126.14;1744276;80;21445;-68
2022/02/25 03:13:15;;;;;;;8.43;5.85;;;;;;;1.85;81.03;99116.34;1742722;80;21141;-69
2022/02/25 03:15:43;;;;;;;8.35;5.95;;;;;;;1.86;81.01;99114.09;1732012;81;21423;-67
2022/02/25 03:18:10;;;;;;;7.35;6.22;;;;;;;1.88;80.98;99124.45;1748117;81;20894;-68
2022/02/25 03:20:36;;;;;;;8.70;6.70;;;;;;;1.88;80.93;99121.34;1748022;80;20900;-68
2022/02/25 03:23:03;;;;;;;7.50;6.47;;;;;;;1.88;80.92;99117.41;1762565;80;21004;-69
2022/02/25 03:25:29;;;;;;;8.15;6.50;;;;;;;1.89;80.92;99110.39;1759907;80;21160;-69
2022/02/25 03:27:56;;;;;;;7.60;5.85;;;;;;;1.90;80.94;99101.57;1758390;80;20982;-69
2022/02/25 03:30:22;;;;;;;8.08;7.08;;;;;;;1.90;80.92;99109.44;1758608;80;21458;-68
2022/02/25 03:32:51;;;;;;;6.75;6.10;;;;;;;1.89;80.91;99109.07;1762796;80;20935;-67
2022/02/25 03:35:18;;;;;;;7.90;6.75;;;;;;;1.89;80.89;99115.63;1760053;80;21085;-68
2022/02/25 03:37:45;;;;;;;8.88;6.60;;;;;;;1.90;80.90;99108.59;1747891;80;21214;-69
2022/02/25 03:40:11;;;;;;;7.50;6.28;;;;;;;1.90;80.92;99107.29;1742280;80;21525;-68
2022/02/25 03:42:38;;;;;;;8.20;6.42;;;;;;;1.88;80.92;99108.70;1759720;80;20963;-68
2022/02/25 03:45:06;;;;;;;9.83;6.80;;;;;;;1.86;80.88;99094.89;1744034;80;20951;-67
2022/02/25 03:47:33;;;;;;;8.55;6.92;;;;;;;1.85;80.91;99088.80;1755382;80;20908;-68
2022/02/25 03:50:00;;;;;;;11.45;7.83;;;;;;;1.86;80.91;99084.40;1744110;81;21137;-67
2022/02/25 03:52:26;;;;;;;9.80;7.65;;;;;;;1.84;80.99;99083.23;1743076;80;21435;-68
2022/02/25 03:54:53;;;;;;;8.60;7.35;;;;;;;1.82;81.03;99077.28;1753484;80;20992;-68
2022/02/25 03:57:21;;;;;;;12.70;8.40;;;;;;;1.82;81.06;99072.50;1754080;80;21040;-68
2022/02/25 03:59:47;;;;;;;9.53;8.05;;;;;;;1.81;81.02;99078.22;1738512;81;20913;-68
2022/02/25 04:02:13;;;;;;;9.33;7.72;;;;;;;1.79;81.02;99087.17;1747376;81;21209;-69
2022/02/25 04:04:40;;;;;;;12.50;8.33;;;;;;;1.77;81.17;99079.91;1743440;81;20941;-68
2022/02/25 04:07:07;;;;;;;9.90;7.83;;;;;;;1.76;81.20;99077.77;1744824;80;20884;-67
2022/02/25 04:09:35;;;;;;;10.03;7.72;;;;;;;1.75;81.25;99079.19;1741504;81;21502;-68
2022/02/25 04:12:02;;;;;;;8.83;7.92;;;;;;;1.76;81.55;99074.30;1754827;81;21006;-69
2022/02/25 04:14:28;;;;;;;10.78;8.45;;;;;;;1.86;82.13;99067.34;1750322;81;21151;-67
2022/02/25 04:16:55;;;;;;;10.05;8.35;;;;;;;1.90;81.75;99077.96;1725673;82;21544;-66
2022/02/25 04:19:21;;;;;;;11.83;8.15;;;;;;;1.89;81.50;99064.48;1764093;80;21006;-69
2022/02/25 04:21:47;;;;;;;10.13;8.33;;;;;;;1.89;81.32;99065.79;1762556;80;21489;-69
2022/02/25 04:24:15;;;;;;;9.28;7.30;;;;;;;1.87;81.20;99065.09;1699194;83;20974;-69
2022/02/25 04:26:42;;;;;;;10.18;7.65;;;;;;;1.85;81.15;99063.08;1704642;83;21183;-69
2022/02/25 04:29:10;;;;;;;13.10;7.65;;;;;;;1.84;81.12;99060.09;1755437;80;20978;-70
2022/02/25 04:31:36;;;;;;;9.03;7.45;;;;;;;1.82;81.09;99060.70;1753465;80;20863;-67
2022/02/25 04:34:03;;;;;;;8.93;8.05;;;;;;;1.80;81.13;99054.72;1735163;80;21038;-69
2022/02/25 04:36:33;;;;;;;7.65;6.80;;;;;;;1.76;81.13;99047.61;1741021;80;20998;-67
2022/02/25 04:38:59;;;;;;;12.40;8.65;;;;;;;1.74;81.19;99042.97;1766250;80;22285;-65
2022/02/25 04:41:26;;;;;;;9.18;7.33;;;;;;;1.72;81.25;99043.55;1758308;80;20940;-67
2022/02/25 04:43:52;;;;;;;9.70;7.20;;;;;;;1.71;81.32;99047.63;1738509;82;20912;-71
2022/02/25 04:46:21;;;;;;;9.88;8.10;;;;;;;1.70;81.39;99059.06;1728654;82;21010;-70
2022/02/25 04:48:47;;;;;;;11.73;8.98;;;;;;;1.69;81.43;99054.79;1743436;81;21389;-68
2022/02/25 04:51:16;;;;;;;12.93;7.83;;;;;;;1.68;81.46;99051.80;1767761;80;21170;-70
2022/02/25 04:53:43;;;;;;;13.40;8.00;;;;;;;1.68;81.55;99053.11;1754458;80;20931;-70
2022/02/25 04:56:10;;;;;;;9.10;7.53;;;;;;;1.66;81.60;99045.86;1748310;80;20978;-68
2022/02/25 04:58:36;;;;;;;8.78;6.97;;;;;;;1.64;81.60;99045.96;1743569;80;20974;-68
2022/02/25 05:01:04;;;;;;;8.80;7.62;;;;;;;1.63;81.68;99046.10;1743659;80;20938;-69
2022/02/25 05:03:32;;;;;;;8.20;7.37;;;;;;;1.62;81.79;99051.81;1742277;82;21981;-67
2022/02/25 05:06:00;;;;;;;9.98;7.53;;;;;;;1.61;81.83;99061.97;1742617;80;22298;-68
2022/02/25 05:08:26;;;;;;;8.45;7.12;;;;;;;1.63;81.87;99061.36;1730155;82;20929;-68
2022/02/25 05:10:53;;;;;;;11.40;7.87;;;;;;;1.67;81.85;99067.17;1736628;82;21650;-68
2022/02/25 05:13:21;;;;;;;9.48;7.58;;;;;;;1.69;81.80;99069.21;1754624;80;21583;-69
2022/02/25 05:21:16;;;;;;;12.07;9.05;;;;;;;1.84;81.82;99054.38;1747857;80;20976;-68
2022/02/25 05:23:43;;;;;;;10.75;8.75;;;;;;;2.00;81.77;99051.79;1772710;80;20907;-68
2022/02/25 05:26:09;;;;;;;10.03;8.08;;;;;;;2.18;81.57;99050.27;1773119;80;20907;-68
2022/02/25 05:28:36;;;;;;;10.53;8.25;;;;;;;2.35;81.19;99047.88;1773064;80;21749;-67
2022/02/25 05:31:03;;;;;;;9.63;8.25;;;;;;;2.56;80.65;99044.39;1773520;80;20978;-68
2022/02/25 05:33:29;;;;;;;10.68;8.53;;;;;;;2.76;80.17;99046.17;1744902;80;21005;-68
2022/02/25 05:35:55;;;;;;;10.53;9.35;;;;;;;2.99;79.71;99045.02;1765478;80;21061;-69
2022/02/25 05:38:22;;;;;;;9.40;8.20;;;;;;;3.24;78.81;99052.42;1749256;80;20893;-69
2022/02/25 05:40:49;;;;;;;10.72;7.95;;;;;;;3.46;78.05;99040.37;1773376;80;21228;-66
2022/02/25 05:43:16;;;;;;;11.60;8.33;;;;;;;3.65;76.79;99047.47;1748321;80;21419;-69
2022/02/25 05:45:44;;;;;;;10.50;8.48;;;;;;;3.80;75.83;99047.40;1737119;80;20958;-68
2022/02/25 05:48:10;;;;;;;10.60;8.70;;;;;;;3.90;74.82;99050.02;1762602;80;20975;-67
2022/02/25 05:50:37;;;;;;;10.53;8.28;;;;;;;3.96;74.36;99056.05;1736139;80;21349;-68
2022/02/25 05:53:03;;;;;;;10.80;8.45;;;;;;;3.98;73.61;99067.27;1773496;80;21083;-68
2022/02/25 05:55:30;;;;;;;9.53;8.00;;;;;;;3.99;73.39;99066.31;1761072;80;21062;-70
2022/02/25 05:57:56;;;;;;;17.57;8.28;;;;;;;4.14;73.25;99062.28;1761953;80;20903;-68
2022/02/25 06:00:24;;;;;;;9.48;7.83;;;;;;;4.43;72.98;99064.88;1758187;80;20924;-67
2022/02/25 06:02:51;;;;;;;11.45;8.23;;;;;;;4.68;71.77;99057.67;1744032;80;20982;-67
2022/02/25 06:05:19;;;;;;;8.80;7.90;;;;;;;4.75;70.86;99060.06;1744710;80;21450;-68
2022/02/25 06:07:47;;;;;;;10.23;8.30;;;;;;;4.70;69.93;99051.77;1773109;80;20876;-68
2022/02/25 06:10:14;;;;;;;11.08;8.63;;;;;;;4.53;69.63;99049.88;1748355;80;20935;-69
2022/02/25 06:12:41;;;;;;;11.70;8.45;;;;;;;4.31;69.68;99056.29;1743764;82;20985;-67
2022/02/25 06:15:09;;;;;;;10.32;9.10;;;;;;;4.19;70.14;99061.38;1755717;80;21425;-68
2022/02/25 06:17:46;;;;;;;10.38;8.70;;;;;;;4.19;70.54;99053.48;1749066;80;21147;-69
2022/02/25 06:20:14;;;;;;;9.13;7.78;;;;;;;4.30;70.62;99049.38;1772972;80;20919;-70
2022/02/25 06:22:42;;;;;;;11.88;9.50;;;;;;;4.48;70.34;99050.31;1772967;80;20947;-70
2022/02/25 06:25:08;;;;;;;8.85;7.90;;;;;;;4.64;70.04;99047.09;1773577;80;21014;-70
2022/02/25 06:27:38;;;;;;;8.80;7.90;;;;;;;4.87;69.75;99049.23;1768187;80;20984;-70
2022/02/25 06:30:09;;;;;;;9.95;8.45;;;;;;;5.09;68.26;99054.59;1754974;80;21098;-69
2022/02/25 06:32:36;;;;;;;9.93;8.00;;;;;;;5.31;67.90;99046.31;1754187;80;20950;-69
2022/02/25 06:35:03;;;;;;;11.48;8.00;;;;;;;5.59;67.20;99046.61;1745579;80;20928;-69
2022/02/25 06:37:29;;;;;;;10.32;8.35;;;;;;;5.89;65.58;99045.95;1762319;80;21023;-69
2022/02/25 06:39:56;;;;;;;8.55;7.67;;;;;;;6.16;64.79;99053.77;1753247;80;20967;-72
2022/02/25 06:42:23;;;;;;;10.80;7.78;;;;;;;6.57;64.09;99037.22;1753687;80;21559;-67
2022/02/25 06:44:50;;;;;;;9.18;7.22;;;;;;;6.94;62.78;99042.72;1762027;80;21513;-67
2022/02/25 06:47:18;;;;;;;9.60;8.20;;;;;;;7.24;61.83;99039.08;1752480;80;20939;-69
2022/02/25 06:49:45;;;;;;;9.38;7.92;;;;;;;7.48;59.83;99041.47;1759747;80;20907;-69
2022/02/25 06:52:12;;;;;;;10.48;8.33;;;;;;;7.54;58.67;99040.80;1758566;80;20907;-68
2022/02/25 06:54:39;;;;;;;10.82;8.50;;;;;;;7.72;58.18;99041.50;1760974;80;21159;-67
2022/02/25 06:57:05;;;;;;;9.83;8.08;;;;;;;7.96;57.35;99030.95;1761291;80;20991;-68
2022/02/25 06:59:32;;;;;;;10.72;8.78;;;;;;;8.24;56.27;99028.30;1749565;80;21058;-68
2022/02/25 07:01:59;;;;;;;10.88;9.15;;;;;;;8.51;55.63;99033.78;1753410;80;21565;-67
2022/02/25 07:04:25;;;;;;;9.85;8.90;;;;;;;8.90;55.32;99025.41;1757094;80;20948;-66
2022/02/25 07:06:54;;;;;;;9.33;8.08;;;;;;;9.46;54.33;99023.05;1760819;80;21742;-66
2022/02/25 07:09:19;;;;;;;10.53;9.05;;;;;;;10.22;53.18;99016.91;1760291;80;20971;-68
2022/02/25 07:11:46;;;;;;;11.15;8.63;;;;;;;10.83;51.35;99007.81;1758583;80;20892;-68
2022/02/25 07:14:12;;;;;;;13.13;9.63;;;;;;;11.28;49.78;99006.79;1759598;80;21541;-68
2022/02/25 07:16:40;;;;;;;11.88;9.73;;;;;;;11.64;48.67;99008.95;1755668;80;21611;-67
2022/02/25 07:19:06;;;;;;;17.40;9.60;;;;;;;11.93;47.76;99002.23;1762525;80;21390;-68
2022/02/25 07:21:33;;;;;;;12.78;9.95;;;;;;;12.23;46.41;99006.40;1756740;80;20888;-68
2022/02/25 07:24:00;;;;;;;14.60;9.38;;;;;;;12.47;45.37;99005.16;1757503;80;20997;-67
2022/02/25 07:26:26;;;;;;;13.00;9.40;;;;;;;12.71;45.01;99001.23;1752585;80;21450;-66
2022/02/25 07:28:53;;;;;;;13.68;9.33;;;;;;;12.93;44.58;99002.28;1750883;80;20955;-66
2022/02/25 07:31:20;;;;;;;13.72;8.70;;;;;;;13.12;43.80;99000.78;1750611;81;21066;-68
2022/02/25 07:33:46;;;;;;;10.30;8.33;;;;;;;13.17;42.83;99002.85;1756253;80;21433;-69
2022/02/25 07:36:13;;;;;;;12.70;8.70;;;;;;;13.20;42.44;98995.78;1750855;80;20990;-66
2022/02/25 07:38:40;;;;;;;9.43;8.43;;;;;;;13.32;42.34;99005.70;1718254;82;21040;-66
2022/02/25 07:41:07;;;;;;;11.22;8.73;;;;;;;13.45;42.06;98999.08;1752309;81;21029;-67
2022/02/25 07:43:33;;;;;;;9.03;8.08;;;;;;;13.52;41.59;98995.10;1755594;81;21840;-68
2022/02/25 07:45:59;;;;;;;10.53;8.30;;;;;;;13.55;41.41;98996.88;1752529;80;21059;-70
2022/02/25 07:48:26;;;;;;;12.15;9.48;;;;;;;13.56;41.01;98990.98;1744471;81;21045;-71
2022/02/25 07:50:53;;;;;;;12.37;8.70;;;;;;;13.56;41.00;98998.50;1724191;82;21066;-66
2022/02/25 07:53:20;;;;;;;11.40;9.10;;;;;;;13.57;40.79;98994.81;1700370;83;21502;-68
2022/02/25 07:55:47;;;;;;;10.08;8.65;;;;;;;13.48;40.71;98984.48;1698274;84;21153;-68
2022/02/25 07:58:14;;;;;;;9.95;8.43;;;;;;;13.33;40.86;98986.49;1753433;81;21450;-68
2022/02/25 08:00:41;;;;;;;9.33;8.38;;;;;;;13.26;40.94;98985.66;1754907;81;20936;-66
2022/02/25 08:03:07;;;;;;;11.75;9.03;;;;;;;13.23;40.63;98991.39;1751695;81;21028;-68
2022/02/25 08:05:34;;;;;;;12.05;8.30;;;;;;;13.05;40.67;98998.56;1746381;81;21085;-68
2022/02/25 08:08:01;;;;;;;9.13;8.20;;;;;;;12.87;40.88;98991.59;1739076;81;21207;-66
2022/02/25 08:10:32;;;;;;;10.00;8.88;;;;;;;12.77;41.05;98997.80;1753384;80;20951;-67
2022/02/25 08:12:59;;;;;;;10.08;8.95;;;;;;;12.68;41.24;98998.95;1750280;80;21639;-69
2022/02/25 08:15:25;;;;;;;11.15;8.70;;;;;;;12.55;41.17;98994.84;1751198;80;20963;-69
2022/02/25 08:17:53;;;;;;;9.03;8.10;;;;;;;12.24;41.58;98993.90;1750007;81;20986;-67
2022/02/25 08:20:19;;;;;;;10.15;8.15;;;;;;;12.05;42.14;99002.03;1748517;81;21159;-67
2022/02/25 08:22:46;;;;;;;10.53;8.15;;;;;;;11.88;42.38;99013.14;1754947;80;20888;-65
2022/02/25 08:25:13;;;;;;;9.28;8.33;;;;;;;11.60;42.76;99003.70;1749780;81;20977;-67
2022/02/25 08:27:39;;;;;;;9.00;8.05;;;;;;;11.35;43.19;99003.70;1754663;80;20971;-67
2022/02/25 08:30:14;;;;;;;10.05;7.85;;;;;;;11.16;43.49;99003.77;1754534;80;20995;-68
2022/02/25 08:32:37;;;;;;;14.18;8.45;;;;;;;10.93;43.92;99003.88;1754657;80;21150;-67
2022/02/25 08:35:07;;;;;;;9.40;8.05;;;;;;;10.74;44.39;99004.41;1757936;80;21556;-68
2022/02/25 08:37:37;;;;;;;9.00;7.20;;;;;;;10.57;44.63;99004.77;1754048;80;21069;-68
2022/02/25 08:40:07;;;;;;;9.68;7.85;;;;;;;10.44;44.99;98999.58;1760334;80;21474;-68
2022/02/25 08:42:37;;;;;;;9.65;8.60;;;;;;;10.36;45.39;98998.33;1759441;80;20856;-65
2022/02/25 08:45:05;;;;;;;10.85;8.48;;;;;;;10.22;45.84;98993.78;1759086;80;21810;-66
2022/02/25 08:47:31;;;;;;;13.38;8.20;;;;;;;10.08;46.18;99001.20;1758177;80;20939;-66
2022/02/25 08:49:58;;;;;;;9.13;8.03;;;;;;;10.05;46.55;99000.72;1763683;80;21010;-66
2022/02/25 08:52:25;;;;;;;11.28;8.50;;;;;;;10.06;46.52;98990.42;1753575;80;20963;-67
2022/02/25 08:54:52;;;;;;;12.20;8.40;;;;;;;10.13;46.41;98991.39;1769850;80;20971;-67
2022/02/25 08:57:19;;;;;;;10.38;8.10;;;;;;;10.31;46.62;98991.89;1767042;80;21096;-66
2022/02/25 08:59:45;;;;;;;10.65;8.65;;;;;;;10.62;46.39;98982.44;1756278;80;20912;-69
2022/02/25 09:02:12;;;;;;;10.82;8.30;;;;;;;10.88;45.69;98984.98;1763802;80;21053;-69
2022/02/25 09:04:39;;;;;;;11.05;8.93;;;;;;;11.13;45.37;98981.00;1747147;80;21022;-67
2022/02/25 09:07:05;;;;;;;9.90;8.08;;;;;;;11.32;45.13;98983.59;1752477;80;21493;-67
2022/02/25 09:09:32;;;;;;;10.25;8.28;;;;;;;11.53;45.37;98980.97;1737399;80;21165;-65
2022/02/25 09:11:58;;;;;;;10.23;8.30;;;;;;;11.64;44.47;98976.98;1755775;80;21035;-67
2022/02/25 09:14:28;;;;;;;9.73;7.75;;;;;;;11.62;44.09;98979.02;1759904;80;21027;-66
2022/02/25 09:16:54;;;;;;;8.85;7.72;;;;;;;11.59;44.06;98974.06;1757823;80;21533;-65
2022/02/25 09:19:21;;;;;;;11.10;7.92;;;;;;;11.52;44.03;98978.51;1753246;80;20907;-65
2022/02/25 09:21:47;;;;;;;9.70;8.65;;;;;;;11.48;43.92;98979.37;1762653;80;21481;-66
2022/02/25 09:24:13;;;;;;;12.78;8.28;;;;;;;11.52;44.02;98971.84;1762221;80;21058;-66
2022/02/25 09:26:40;;;;;;;9.73;7.42;;;;;;;11.61;43.84;98978.19;1754468;80;21560;-64
2022/02/25 09:29:07;;;;;;;7.92;6.80;;;;;;;11.80;43.18;98978.62;1734034;80;20957;-64
2022/02/25 09:31:33;;;;;;;7.72;6.70;;;;;;;11.82;42.68;98969.41;1737165;81;21411;-65
2022/02/25 09:34:00;;;;;;;7.22;5.75;;;;;;;11.85;42.65;98969.55;1746759;81;21054;-68
2022/02/25 09:36:26;;;;;;;9.98;6.00;;;;;;;11.84;41.60;98967.88;1732651;81;20991;-65
2022/02/25 09:38:52;;;;;;;8.05;6.00;;;;;;;11.76;41.37;98966.17;1734890;81;21497;-66
2022/02/25 09:41:19;;;;;;;7.92;6.45;;;;;;;11.69;41.29;98969.28;1730097;82;21145;-65
2022/02/25 09:43:45;;;;;;;9.25;6.00;;;;;;;11.67;41.48;98967.29;1740208;81;21025;-65
2022/02/25 09:46:15;;;;;;;7.12;6.00;;;;;;;11.68;41.45;98962.27;1743283;81;21010;-67
2022/02/25 09:48:42;;;;;;;9.23;5.55;;;;;;;11.59;41.25;98958.09;1681876;84;20959;-65
2022/02/25 09:51:08;;;;;;;8.15;6.12;;;;;;;11.41;41.61;98961.67;1755199;81;20968;-69
2022/02/25 09:53:34;;;;;;;7.97;5.90;;;;;;;11.31;42.47;98961.16;1699616;83;20968;-72
2022/02/25 09:56:01;;;;;;;9.98;5.22;;;;;;;11.24;42.44;98953.61;1751937;81;21115;-64
2022/02/25 09:58:27;;;;;;;7.03;4.90;;;;;;;11.14;42.28;98952.05;1733721;81;21123;-67
2022/02/25 10:00:53;;;;;;;5.87;4.80;;;;;;;11.04;42.25;98956.01;1745291;81;20978;-66
2022/02/25 10:03:21;;;;;;;6.87;4.62;;;;;;;10.85;42.21;98957.89;1747161;81;21507;-67
2022/02/25 10:05:49;;;;;;;6.30;4.30;;;;;;;10.67;42.36;98954.78;1731979;81;21443;-66
2022/02/25 10:08:19;;;;;;;6.00;4.10;;;;;;;10.53;42.51;98953.27;1748652;81;21075;-66
2022/02/25 10:10:56;;;;;;;8.53;5.67;;;;;;;10.43;42.83;98952.70;1730966;81;20952;-66
2022/02/25 10:13:26;;;;;;;6.37;4.53;;;;;;;10.35;43.14;98956.77;1749187;81;20837;-65
2022/02/25 10:15:56;;;;;;;6.05;4.30;;;;;;;10.36;43.07;98949.63;1759103;81;20971;-65
2022/02/25 10:18:28;;;;;;;10.53;5.42;;;;;;;10.44;42.92;98952.21;1742008;81;21013;-68
2022/02/25 10:21:07;;;;;;;6.55;4.22;;;;;;;10.56;42.98;98949.94;1732508;81;21427;-68
2022/02/25 10:23:39;;;;;;;5.80;4.42;;;;;;;10.66;42.10;98946.00;1731489;81;21129;-67
2022/02/25 10:26:18;;;;;;;7.15;4.78;;;;;;;10.70;41.65;98935.80;1729059;81;21000;-65
2022/02/25 10:28:49;;;;;;;10.43;5.03;;;;;;;10.70;41.77;98947.77;1732626;81;21380;-66
2022/02/25 10:31:33;;;;;;;5.97;4.53;;;;;;;10.78;41.69;98939.20;1736378;82;20944;-66
2022/02/25 10:34:16;;;;;;;6.05;4.83;;;;;;;10.85;41.55;98941.44;1737265;81;21093;-67
2022/02/25 10:36:53;;;;;;;6.62;5.10;;;;;;;10.89;41.24;98940.07;1737304;82;21136;-65
2022/02/25 10:39:26;;;;;;;6.40;4.20;;;;;;;10.91;41.37;98942.03;1726651;82;20890;-65
2022/02/25 10:42:15;;;;;;;6.65;3.85;;;;;;;11.00;41.69;98941.44;1733169;81;20982;-70
2022/02/25 10:44:57;;;;;;;6.10;4.30;;;;;;;11.20;41.77;98949.65;1730464;82;21542;-68
2022/02/25 10:47:30;;;;;;;4.87;4.05;;;;;;;11.36;41.19;98950.27;1724506;82;21514;-63
2022/02/25 10:50:08;;;;;;;8.80;5.00;;;;;;;11.46;41.01;98949.45;1731554;82;21119;-63
2022/02/25 10:52:39;;;;;;;7.85;5.03;;;;;;;11.53;41.34;98942.84;1722729;82;20837;-63
2022/02/25 10:55:13;;;;;;;6.75;4.67;;;;;;;11.65;41.01;98946.15;1733634;81;20967;-64
2022/02/25 10:57:40;;;;;;;5.42;3.98;;;;;;;11.69;40.88;98942.14;1733347;82;21047;-64
2022/02/25 11:00:11;;;;;;;6.12;4.87;;;;;;;11.74;41.05;98940.22;1736470;82;20893;-65
2022/02/25 11:02:41;;;;;;;6.08;5.00;;;;;;;11.76;40.94;98940.85;1718709;81;21138;-63
2022/02/25 11:05:21;;;;;;;7.42;4.53;;;;;;;11.74;40.89;98944.22;1724068;82;21005;-66
2022/02/25 11:07:52;;;;;;;6.50;4.95;;;;;;;11.68;41.18;98935.62;1719132;82;21029;-65
2022/02/25 11:10:21;;;;;;;6.25;4.58;;;;;;;11.68;41.33;98939.61;1720780;82;20909;-67
2022/02/25 11:12:49;;;;;;;5.42;4.40;;;;;;;11.69;41.43;98934.64;1735202;82;21047;-66
2022/02/25 11:15:25;;;;;;;6.87;4.83;;;;;;;11.69;41.53;98929.31;1736898;82;21147;-65
2022/02/25 11:17:52;;;;;;;7.35;4.40;;;;;;;11.77;41.74;98934.52;1736837;82;21491;-66
2022/02/25 11:20:23;;;;;;;7.03;4.78;;;;;;;11.95;41.94;98926.89;1726572;82;20984;-64
2022/02/25 11:23:01;;;;;;;7.08;4.70;;;;;;;12.11;41.65;98927.95;1733729;82;21520;-65
2022/02/25 11:25:27;;;;;;;5.30;4.45;;;;;;;12.31;41.52;98928.09;1727166;82;21126;-68
2022/02/25 11:27:55;;;;;;;5.37;3.98;;;;;;;12.42;41.38;98918.72;1736761;82;21104;-66
2022/02/25 11:30:48;;;;;;;6.08;5.00;;;;;;;12.50;41.33;98919.91;1769097;80;20991;-66
2022/02/25 11:33:16;;;;;;;8.43;4.10;;;;;;;12.66;41.08;98920.43;1756729;80;20935;-66
2022/02/25 11:35:57;;;;;;;6.92;4.30;;;;;;;12.82;40.59;98920.61;1766084;80;20982;-66
2022/02/25 11:38:33;;;;;;;8.48;4.60;;;;;;;12.88;40.41;98923.81;1763350;80;21000;-66
2022/02/25 11:41:19;;;;;;;8.88;5.78;;;;;;;12.85;40.20;98925.03;1772935;80;21128;-66
2022/02/25 11:43:57;;;;;;;11.12;5.67;;;;;;;12.81;40.46;98926.46;1773123;80;20864;-67